Time;durP1;ratioP1;P1;durP2;ratioP2;P2;SDS_P1;SDS_P2;PMS_P1;PMS_P2;Temp;Humidity;BMP_temperature;BMP_pressure;BME280_temperature;BME280_humidity;BME280_pressure;Samples;Min_cycle;Max_cycle;Signal;HPM_P1;HPM_P2
2021/03/19 00:00:32;;;;;;;16.77;11.13;;;;;;;;;;4977717;28;20550;-74
2021/03/19 00:03:36;;;;;;;15.00;10.67;;;;;;;;;;4970249;28;20601;-74
2021/03/19 00:06:40;;;;;;;17.47;11.43;;;;;;;;;;4962377;28;20587;-74
2021/03/19 00:09:45;;;;;;;16.33;11.70;;;;;;;;;;4977678;28;20554;-73
2021/03/19 00:12:50;;;;;;;18.17;11.00;;;;;;;;;;4948741;29;20942;-74
2021/03/19 00:15:55;;;;;;;17.83;11.83;;;;;;;;;;4946440;29;20550;-73
2021/03/19 00:19:00;;;;;;;16.90;11.53;;;;;;;;;;4966207;28;20599;-74
2021/03/19 00:22:05;;;;;;;17.97;11.50;;;;;;;;;;4977379;28;20627;-74
2021/03/19 00:25:10;;;;;;;17.47;11.60;;;;;;;;;;4951279;29;20590;-74
2021/03/19 00:28:15;;;;;;;16.37;11.60;;;;;;;;;;4957998;29;20556;-74
2021/03/19 00:31:19;;;;;;;16.83;10.90;;;;;;;;;;4946301;29;20663;-74
2021/03/19 00:34:23;;;;;;;17.93;10.43;;;;;;;;;;4957918;29;20571;-74
2021/03/19 00:37:28;;;;;;;17.80;11.33;;;;;;;;;;4957840;29;20910;-74
2021/03/19 00:40:32;;;;;;;14.73;10.80;;;;;;;;;;4945918;29;20556;-74
2021/03/19 00:43:36;;;;;;;14.43;10.17;;;;;;;;;;4935238;29;20886;-74
2021/03/19 00:46:41;;;;;;;17.07;11.37;;;;;;;;;;4945855;29;20554;-74
2021/03/19 00:49:45;;;;;;;15.80;9.87;;;;;;;;;;4934904;29;21097;-74
2021/03/19 00:52:49;;;;;;;15.07;10.23;;;;;;;;;;4957517;29;20600;-74
2021/03/19 00:55:56;;;;;;;15.50;10.10;;;;;;;;;;4957094;29;20629;-74
2021/03/19 00:59:00;;;;;;;14.17;9.77;;;;;;;;;;4945929;29;20554;-74
2021/03/19 01:02:04;;;;;;;17.17;11.53;;;;;;;;;;4945242;29;21216;-74
2021/03/19 01:05:14;;;;;;;16.57;11.20;;;;;;;;;;4957066;29;20613;-74
2021/03/19 01:08:18;;;;;;;15.57;11.13;;;;;;;;;;4945732;29;20550;-74
2021/03/19 01:11:23;;;;;;;18.80;12.03;;;;;;;;;;4957377;29;20735;-74
2021/03/19 01:14:27;;;;;;;17.93;11.93;;;;;;;;;;4957181;29;20620;-74
2021/03/19 01:17:32;;;;;;;18.23;11.93;;;;;;;;;;4957064;29;20563;-74
2021/03/19 01:20:38;;;;;;;18.33;11.93;;;;;;;;;;4956968;29;20559;-74
2021/03/19 01:23:44;;;;;;;20.60;12.20;;;;;;;;;;4956762;29;20895;-74
2021/03/19 01:26:48;;;;;;;20.17;12.17;;;;;;;;;;4956726;29;20563;-74
2021/03/19 01:29:52;;;;;;;18.73;12.03;;;;;;;;;;4956606;29;20555;-74
2021/03/19 01:32:57;;;;;;;20.47;12.23;;;;;;;;;;4956499;29;20610;-74
2021/03/19 01:36:04;;;;;;;18.17;13.03;;;;;;;;;;4945142;29;20551;-74
2021/03/19 01:39:09;;;;;;;18.93;12.77;;;;;;;;;;4956469;29;20551;-74
2021/03/19 01:42:13;;;;;;;20.20;13.17;;;;;;;;;;4944470;29;20625;-74
2021/03/19 01:45:55;;;;;;;20.77;12.83;;;;;;;;;;4945054;29;20626;-74
2021/03/19 01:49:38;;;;;;;19.67;13.00;;;;;;;;;;4956248;29;20547;-74
2021/03/19 01:53:20;;;;;;;18.63;12.77;;;;;;;;;;4933352;29;21237;-74
2021/03/19 01:57:01;;;;;;;22.40;13.50;;;;;;;;;;4955140;28;21188;-74
2021/03/19 02:00:43;;;;;;;22.33;12.90;;;;;;;;;;4956333;29;20544;-74
2021/03/19 02:04:26;;;;;;;22.23;13.73;;;;;;;;;;4956032;29;20559;-74
2021/03/19 02:12:52;;;;;;;20.20;13.47;;;;;;;;;;4957254;28;20666;-74
2021/03/19 02:16:34;;;;;;;20.50;12.87;;;;;;;;;;4955766;29;20539;-74
2021/03/19 02:20:16;;;;;;;20.53;13.23;;;;;;;;;;4943911;29;20600;-74
2021/03/19 02:23:58;;;;;;;19.57;12.37;;;;;;;;;;4955930;29;20547;-74
2021/03/19 02:27:40;;;;;;;22.07;12.43;;;;;;;;;;4943794;29;21109;-74
2021/03/19 02:31:09;;;;;;;19.70;12.23;;;;;;;;;;4955445;29;20622;-74
2021/03/19 02:34:14;;;;;;;19.87;12.60;;;;;;;;;;4955494;29;20563;-74
2021/03/19 02:37:21;;;;;;;17.90;12.23;;;;;;;;;;4943932;29;21125;-74
2021/03/19 02:40:26;;;;;;;18.03;12.83;;;;;;;;;;4955523;29;20610;-74
2021/03/19 02:43:30;;;;;;;19.07;12.37;;;;;;;;;;4943872;29;20907;-74
2021/03/19 02:46:34;;;;;;;17.70;12.97;;;;;;;;;;4955630;29;21083;-74
2021/03/19 02:49:39;;;;;;;20.97;13.63;;;;;;;;;;4955375;29;20562;-74
2021/03/19 02:52:44;;;;;;;19.30;12.77;;;;;;;;;;4955089;29;20681;-74
2021/03/19 02:55:49;;;;;;;18.23;12.90;;;;;;;;;;4921614;29;20605;-74
2021/03/19 02:58:53;;;;;;;21.20;13.37;;;;;;;;;;4943662;29;20551;-74
2021/03/19 03:01:57;;;;;;;23.53;13.50;;;;;;;;;;4932452;29;20986;-74
2021/03/19 03:05:01;;;;;;;21.27;13.00;;;;;;;;;;4955059;29;20613;-74
2021/03/19 03:08:09;;;;;;;20.20;12.47;;;;;;;;;;4943522;29;21113;-74
2021/03/19 03:11:13;;;;;;;18.67;12.57;;;;;;;;;;4943435;29;20635;-74
2021/03/19 03:14:21;;;;;;;20.73;12.73;;;;;;;;;;4943533;29;20544;-74
2021/03/19 03:17:25;;;;;;;21.93;12.97;;;;;;;;;;4954941;29;20614;-74
2021/03/19 03:20:38;;;;;;;19.10;11.90;;;;;;;;;;4955134;29;21120;-74
2021/03/19 03:23:43;;;;;;;18.40;12.30;;;;;;;;;;4932206;29;20549;-74
2021/03/19 03:26:47;;;;;;;21.63;13.73;;;;;;;;;;4932409;29;20555;-74
2021/03/19 03:29:51;;;;;;;19.03;13.10;;;;;;;;;;4954848;29;20610;-74
2021/03/19 03:32:56;;;;;;;20.90;13.90;;;;;;;;;;4959159;28;21014;-75
2021/03/19 03:36:01;;;;;;;19.80;12.83;;;;;;;;;;4954970;29;20960;-74
2021/03/19 03:39:22;;;;;;;20.53;13.93;;;;;;;;;;4943214;29;20548;-74
2021/03/19 03:42:26;;;;;;;19.00;13.23;;;;;;;;;;4958996;28;20641;-74
2021/03/19 03:45:32;;;;;;;19.37;13.57;;;;;;;;;;4973993;28;20565;-73
2021/03/19 03:48:36;;;;;;;20.23;13.47;;;;;;;;;;4974260;28;20902;-74
2021/03/19 03:51:41;;;;;;;21.33;14.57;;;;;;;;;;4958555;28;20645;-74
2021/03/19 03:54:45;;;;;;;20.23;14.47;;;;;;;;;;4943021;29;21125;-74
2021/03/19 03:57:49;;;;;;;22.93;14.60;;;;;;;;;;4942816;29;20621;-74
2021/03/19 04:00:54;;;;;;;20.27;13.70;;;;;;;;;;4954731;29;20998;-74
2021/03/19 04:03:58;;;;;;;21.30;14.60;;;;;;;;;;4954657;29;20559;-74
2021/03/19 04:07:02;;;;;;;23.40;15.17;;;;;;;;;;4970782;28;20612;-74
2021/03/19 04:10:07;;;;;;;22.83;14.60;;;;;;;;;;4973985;28;20929;-74
2021/03/19 04:13:12;;;;;;;23.70;15.37;;;;;;;;;;4973654;28;20601;-74
2021/03/19 04:16:17;;;;;;;23.97;15.00;;;;;;;;;;4974006;28;20542;-74
2021/03/19 04:19:21;;;;;;;24.70;15.67;;;;;;;;;;4973877;28;20553;-74
2021/03/19 04:22:26;;;;;;;23.97;16.03;;;;;;;;;;4977135;28;20622;-74
2021/03/19 04:25:30;;;;;;;23.53;15.90;;;;;;;;;;4965375;28;20561;-74
2021/03/19 04:28:39;;;;;;;25.77;15.73;;;;;;;;;;4965220;28;20567;-74
2021/03/19 04:31:43;;;;;;;22.87;16.03;;;;;;;;;;4976911;28;20644;-74
2021/03/19 04:34:48;;;;;;;22.63;14.47;;;;;;;;;;4954170;28;20925;-74
2021/03/19 04:37:57;;;;;;;23.60;15.37;;;;;;;;;;4954363;28;21101;-74
2021/03/19 04:41:01;;;;;;;21.60;15.20;;;;;;;;;;4976720;28;20629;-74
2021/03/19 04:44:06;;;;;;;19.93;14.27;;;;;;;;;;4976732;28;20605;-73
2021/03/19 04:47:12;;;;;;;23.17;14.83;;;;;;;;;;4976915;28;20605;-74
2021/03/19 04:50:16;;;;;;;22.40;15.70;;;;;;;;;;4976995;28;20550;-74
2021/03/19 04:53:20;;;;;;;23.50;14.67;;;;;;;;;;4976556;28;20605;-74
2021/03/19 04:56:25;;;;;;;21.77;14.30;;;;;;;;;;4976479;28;20613;-74
2021/03/19 04:59:29;;;;;;;22.37;14.93;;;;;;;;;;4964914;28;20546;-74
2021/03/19 05:02:40;;;;;;;22.87;15.00;;;;;;;;;;4964743;28;20625;-74
2021/03/19 05:05:44;;;;;;;24.80;15.23;;;;;;;;;;4976404;28;20592;-74
2021/03/19 05:08:49;;;;;;;26.17;16.40;;;;;;;;;;4976584;28;20550;-74
2021/03/19 05:11:53;;;;;;;21.83;14.40;;;;;;;;;;4964785;28;20632;-75
2021/03/19 05:14:57;;;;;;;24.93;16.13;;;;;;;;;;4964303;28;21167;-74
2021/03/19 05:18:01;;;;;;;23.07;15.33;;;;;;;;;;4964231;28;20610;-75
2021/03/19 05:21:06;;;;;;;24.40;15.80;;;;;;;;;;4975956;28;21235;-75
2021/03/19 05:24:11;;;;;;;24.63;16.07;;;;;;;;;;4964525;28;21092;-74
2021/03/19 05:27:15;;;;;;;23.43;16.23;;;;;;;;;;4964346;28;20558;-74
2021/03/19 05:30:22;;;;;;;23.73;15.20;;;;;;;;;;4976065;28;20709;-74
2021/03/19 05:33:29;;;;;;;21.63;15.43;;;;;;;;;;4976074;28;20603;-74
2021/03/19 05:36:34;;;;;;;24.40;16.77;;;;;;;;;;4975768;28;20617;-74
2021/03/19 05:39:38;;;;;;;23.53;15.67;;;;;;;;;;4964062;28;20564;-74
2021/03/19 05:42:42;;;;;;;22.63;16.27;;;;;;;;;;4975843;28;20645;-74
2021/03/19 05:46:15;;;;;;;26.57;16.07;;;;;;;;;;4975915;28;20627;-73
2021/03/19 05:49:19;;;;;;;28.07;16.07;;;;;;;;;;4975561;28;20918;-73
2021/03/19 05:52:28;;;;;;;25.97;16.23;;;;;;;;;;4963482;28;20631;-73
2021/03/19 05:55:36;;;;;;;25.47;17.03;;;;;;;;;;4975427;28;20582;-73
2021/03/19 05:58:41;;;;;;;24.70;15.27;;;;;;;;;;4963453;28;20601;-73
2021/03/19 06:01:46;;;;;;;22.87;16.00;;;;;;;;;;4975545;28;20638;-73
2021/03/19 06:05:10;;;;;;;23.60;15.33;;;;;;;;;;4952674;28;20558;-73
2021/03/19 06:08:27;;;;;;;25.00;16.13;;;;;;;;;;4975740;28;20558;-73
2021/03/19 06:11:31;;;;;;;28.43;16.43;;;;;;;;;;4975087;28;21028;-73
2021/03/19 06:14:51;;;;;;;25.13;16.50;;;;;;;;;;4975339;28;20606;-73
2021/03/19 06:17:57;;;;;;;23.40;15.20;;;;;;;;;;4968681;28;20609;-73
2021/03/19 06:21:06;;;;;;;24.63;16.17;;;;;;;;;;4944371;29;20630;-73
2021/03/19 06:24:27;;;;;;;21.67;15.33;;;;;;;;;;4953884;23;20778;-73
2021/03/19 06:27:47;;;;;;;26.97;16.33;;;;;;;;;;4989486;23;20700;-74
2021/03/19 06:30:51;;;;;;;23.57;15.60;;;;;;;;;;4963087;28;21242;-76
2021/03/19 06:34:05;;;;;;;23.40;15.90;;;;;;;;;;4962830;28;20614;-73
2021/03/19 06:37:11;;;;;;;26.33;16.97;;;;;;;;;;4968382;22;20689;-74
2021/03/19 06:39:51;;;;;;;24.27;18.87;;;;;;;;;;4995619;23;20765;-73
2021/03/19 06:43:11;;;;;;;24.03;16.33;;;;;;;;;;4967955;22;20701;-73
2021/03/19 06:46:13;;;;;;;26.63;15.83;;;;;;;;;;4995350;23;20673;-73
2021/03/19 06:49:19;;;;;;;22.10;15.47;;;;;;;;;;4994029;28;20913;-73
2021/03/19 06:52:29;;;;;;;24.17;16.57;;;;;;;;;;4993833;28;20632;-73
2021/03/19 06:55:54;;;;;;;22.43;15.30;;;;;;;;;;4993916;28;20567;-73
2021/03/19 06:59:16;;;;;;;21.80;14.90;;;;;;;;;;4982183;28;20553;-72
2021/03/19 07:02:20;;;;;;;59.97;28.77;;;;;;;;;;4994139;28;20632;-72
2021/03/19 07:05:45;;;;;;;29.40;17.60;;;;;;;;;;4981710;28;20960;-72
2021/03/19 07:09:11;;;;;;;24.77;16.30;;;;;;;;;;4970890;28;20555;-72
2021/03/19 07:13:09;;;;;;;185.13;68.87;;;;;;;;;;4993719;28;21221;-72
2021/03/19 07:16:39;;;;;;;42.47;22.93;;;;;;;;;;4918543;28;20661;-73
2021/03/19 07:20:05;;;;;;;22.77;15.77;;;;;;;;;;4993790;28;20565;-73
2021/03/19 07:23:25;;;;;;;28.10;17.00;;;;;;;;;;4993791;28;20551;-73
2021/03/19 07:26:34;;;;;;;24.87;17.10;;;;;;;;;;4981498;28;20562;-73
2021/03/19 07:30:18;;;;;;;25.37;16.57;;;;;;;;;;4993750;28;20562;-73
2021/03/19 07:33:32;;;;;;;84.43;34.43;;;;;;;;;;4993327;28;21167;-72
2021/03/19 07:36:45;;;;;;;27.30;17.93;;;;;;;;;;4981817;28;20554;-72
2021/03/19 07:40:01;;;;;;;27.40;17.37;;;;;;;;;;4993335;28;20606;-72
2021/03/19 07:43:26;;;;;;;31.90;23.90;;;;;;;;;;4993380;28;20592;-72
2021/03/19 07:46:46;;;;;;;26.67;18.83;;;;;;;;;;4993617;28;20553;-72
2021/03/19 07:49:56;;;;;;;23.63;15.80;;;;;;;;;;4993461;28;20562;-73
2021/03/19 07:53:38;;;;;;;22.63;15.13;;;;;;;;;;4993190;28;21167;-72
2021/03/19 07:57:07;;;;;;;22.90;14.73;;;;;;;;;;4997071;28;20551;-72
2021/03/19 08:00:15;;;;;;;23.53;15.53;;;;;;;;;;4985041;28;20548;-72
2021/03/19 08:03:27;;;;;;;23.63;15.60;;;;;;;;;;4997291;28;20885;-73
2021/03/19 08:06:36;;;;;;;21.20;14.83;;;;;;;;;;4997198;28;20553;-72
2021/03/19 08:10:00;;;;;;;22.87;15.07;;;;;;;;;;4974238;28;20561;-73
2021/03/19 08:13:27;;;;;;;21.40;15.53;;;;;;;;;;4985040;28;20907;-73
2021/03/19 08:16:42;;;;;;;24.07;15.53;;;;;;;;;;4997182;28;20547;-73
2021/03/19 08:19:50;;;;;;;23.37;15.03;;;;;;;;;;4996648;28;20960;-73
2021/03/19 08:23:11;;;;;;;22.70;14.97;;;;;;;;;;4996770;28;20570;-73
2021/03/19 08:26:48;;;;;;;20.93;14.77;;;;;;;;;;4984556;28;20561;-73
2021/03/19 08:30:27;;;;;;;23.13;14.00;;;;;;;;;;5002703;28;20557;-72
2021/03/19 08:33:50;;;;;;;23.17;15.70;;;;;;;;;;4984689;28;20956;-73
2021/03/19 08:36:55;;;;;;;20.57;14.17;;;;;;;;;;4996346;28;20565;-73
2021/03/19 08:40:00;;;;;;;18.73;13.97;;;;;;;;;;4996538;28;21131;-74
2021/03/19 08:43:11;;;;;;;19.40;13.40;;;;;;;;;;4984496;28;20549;-73
2021/03/19 08:46:22;;;;;;;20.90;14.63;;;;;;;;;;4984475;28;20553;-72
2021/03/19 08:49:26;;;;;;;18.90;12.97;;;;;;;;;;4984124;28;20564;-73
2021/03/19 08:52:35;;;;;;;20.77;14.60;;;;;;;;;;4996126;28;20631;-73
2021/03/19 08:55:46;;;;;;;20.23;13.70;;;;;;;;;;4996182;28;20561;-73
2021/03/19 08:58:52;;;;;;;18.67;13.07;;;;;;;;;;4984245;28;20553;-73
2021/03/19 09:01:58;;;;;;;19.20;12.43;;;;;;;;;;4983946;28;20275;-74
2021/03/19 09:05:16;;;;;;;17.87;12.47;;;;;;;;;;4992371;28;20225;-73
2021/03/19 09:08:28;;;;;;;16.93;12.33;;;;;;;;;;4996000;28;20199;-73
2021/03/19 09:11:36;;;;;;;16.93;12.57;;;;;;;;;;4979859;28;20237;-73
2021/03/19 09:14:51;;;;;;;17.20;12.77;;;;;;;;;;4953280;28;20550;-73
2021/03/19 09:18:02;;;;;;;14.90;11.53;;;;;;;;;;4976657;28;20207;-73
2021/03/19 09:21:36;;;;;;;18.50;12.87;;;;;;;;;;4957267;29;20712;-73
2021/03/19 09:24:41;;;;;;;15.93;11.93;;;;;;;;;;4956966;29;20183;-73
2021/03/19 09:28:04;;;;;;;13.80;10.63;;;;;;;;;;4945370;29;20188;-73
2021/03/19 09:31:26;;;;;;;19.20;12.13;;;;;;;;;;4956883;29;20238;-73
2021/03/19 09:34:30;;;;;;;13.10;10.13;;;;;;;;;;4956516;29;20243;-73
2021/03/19 09:37:34;;;;;;;13.53;10.33;;;;;;;;;;4933859;29;20187;-73
2021/03/19 09:40:52;;;;;;;14.07;11.07;;;;;;;;;;4944704;29;20191;-74
2021/03/19 09:43:56;;;;;;;13.77;10.90;;;;;;;;;;4956507;29;20227;-74
2021/03/19 09:47:01;;;;;;;15.83;11.43;;;;;;;;;;4944827;29;20188;-73
2021/03/19 09:50:15;;;;;;;13.77;10.53;;;;;;;;;;4956602;29;20201;-73
2021/03/19 09:53:19;;;;;;;15.23;10.73;;;;;;;;;;4956496;29;20689;-74
2021/03/19 09:56:28;;;;;;;16.00;11.13;;;;;;;;;;4956230;29;20195;-74
2021/03/19 09:59:37;;;;;;;19.90;13.17;;;;;;;;;;4944571;29;20188;-74
2021/03/19 10:02:42;;;;;;;20.17;12.97;;;;;;;;;;4956062;29;20230;-74
2021/03/19 10:05:48;;;;;;;18.13;11.83;;;;;;;;;;4956005;29;20188;-74
2021/03/19 10:09:04;;;;;;;17.57;12.53;;;;;;;;;;4956265;29;20549;-73
2021/03/19 10:12:13;;;;;;;8.60;7.00;;;;;;;;;;4956115;29;20236;-74
2021/03/19 10:15:21;;;;;;;13.47;10.60;;;;;;;;;;4944471;29;20220;-74
2021/03/19 10:18:43;;;;;;;11.13;7.70;;;;;;;;;;4955234;28;20199;-74
2021/03/19 10:21:48;;;;;;;10.50;7.83;;;;;;;;;;4943852;29;20227;-73
2021/03/19 10:24:53;;;;;;;12.07;8.73;;;;;;;;;;4944122;29;20635;-74
2021/03/19 10:28:13;;;;;;;10.83;8.40;;;;;;;;;;4933114;29;20183;-74
2021/03/19 10:31:25;;;;;;;9.23;7.23;;;;;;;;;;4944016;29;20223;-74
2021/03/19 10:34:51;;;;;;;8.13;6.70;;;;;;;;;;4955617;29;20562;-74
2021/03/19 10:38:01;;;;;;;7.10;6.30;;;;;;;;;;4955779;29;20196;-74
2021/03/19 10:41:34;;;;;;;8.97;7.43;;;;;;;;;;4955432;29;20583;-74
2021/03/19 10:44:55;;;;;;;7.63;6.17;;;;;;;;;;4955429;29;20207;-74
2021/03/19 10:48:21;;;;;;;7.97;6.53;;;;;;;;;;4955595;29;20191;-74
2021/03/19 10:51:42;;;;;;;7.77;6.17;;;;;;;;;;4955488;29;20223;-73
2021/03/19 10:54:48;;;;;;;8.43;6.87;;;;;;;;;;4943613;29;20228;-74
2021/03/19 10:58:21;;;;;;;8.40;6.80;;;;;;;;;;4955459;29;20525;-74
2021/03/19 11:01:27;;;;;;;7.67;6.13;;;;;;;;;;4955360;29;20223;-74
2021/03/19 11:04:38;;;;;;;8.27;6.43;;;;;;;;;;4943477;29;20187;-74
2021/03/19 11:07:44;;;;;;;7.83;6.40;;;;;;;;;;4943445;29;20179;-74
2021/03/19 11:10:52;;;;;;;9.23;7.40;;;;;;;;;;4943111;29;20691;-74
2021/03/19 11:14:03;;;;;;;8.97;6.23;;;;;;;;;;4943427;29;20200;-73
2021/03/19 11:17:18;;;;;;;8.73;6.57;;;;;;;;;;4943359;29;20200;-74
2021/03/19 11:20:33;;;;;;;7.83;6.73;;;;;;;;;;4955845;28;20207;-73
2021/03/19 11:23:38;;;;;;;7.63;6.67;;;;;;;;;;4959535;28;20211;-74
2021/03/19 11:26:52;;;;;;;8.97;6.93;;;;;;;;;;4962477;28;20178;-74
2021/03/19 11:30:35;;;;;;;9.20;6.80;;;;;;;;;;4976828;28;20187;-74
2021/03/19 11:34:07;;;;;;;7.23;6.23;;;;;;;;;;4921436;29;20189;-75
2021/03/19 11:37:32;;;;;;;7.07;6.00;;;;;;;;;;4947328;29;20643;-74
2021/03/19 11:40:40;;;;;;;7.73;6.57;;;;;;;;;;4958729;29;20192;-74
2021/03/19 11:43:45;;;;;;;6.57;5.70;;;;;;;;;;4961014;28;20207;-75
2021/03/19 11:46:49;;;;;;;6.03;5.37;;;;;;;;;;4977797;28;20178;-74
2021/03/19 11:50:27;;;;;;;6.47;5.33;;;;;;;;;;4966091;28;20203;-74
2021/03/19 11:53:32;;;;;;;8.47;6.03;;;;;;;;;;4978103;28;20527;-74
2021/03/19 11:56:37;;;;;;;8.50;6.63;;;;;;;;;;4965775;28;20190;-74
2021/03/19 11:59:42;;;;;;;8.27;6.90;;;;;;;;;;4977924;28;20187;-74
2021/03/19 12:02:49;;;;;;;6.53;5.80;;;;;;;;;;4970717;28;20585;-73
2021/03/19 12:05:53;;;;;;;6.43;5.70;;;;;;;;;;4958693;29;20180;-74
2021/03/19 12:08:58;;;;;;;7.33;6.50;;;;;;;;;;4958345;29;20199;-73
2021/03/19 12:12:02;;;;;;;11.87;9.13;;;;;;;;;;4958225;29;20227;-74
2021/03/19 12:15:08;;;;;;;11.30;9.17;;;;;;;;;;4957317;29;20390;-74
2021/03/19 12:18:14;;;;;;;11.97;9.10;;;;;;;;;;4958165;29;20183;-73
2021/03/19 12:21:19;;;;;;;8.57;7.20;;;;;;;;;;4956968;29;20219;-74
2021/03/19 12:24:24;;;;;;;15.00;8.83;;;;;;;;;;4945996;29;20187;-74
2021/03/19 12:27:28;;;;;;;10.80;8.70;;;;;;;;;;4945765;29;20207;-74
2021/03/19 12:30:33;;;;;;;10.97;8.70;;;;;;;;;;4957892;29;20183;-74
2021/03/19 12:33:38;;;;;;;10.40;8.60;;;;;;;;;;4957941;29;20184;-73
2021/03/19 12:36:42;;;;;;;11.20;8.50;;;;;;;;;;4945762;29;20544;-73
2021/03/19 12:39:46;;;;;;;13.70;9.43;;;;;;;;;;4957403;28;20203;-73
2021/03/19 12:42:50;;;;;;;12.17;9.97;;;;;;;;;;4957493;29;20659;-74
2021/03/19 12:45:55;;;;;;;13.23;9.23;;;;;;;;;;4945976;29;20619;-73
2021/03/19 12:48:59;;;;;;;10.20;7.97;;;;;;;;;;4957470;29;20532;-73
2021/03/19 12:52:04;;;;;;;9.63;6.63;;;;;;;;;;4957131;29;21181;-73
2021/03/19 12:55:08;;;;;;;9.00;7.70;;;;;;;;;;4957392;29;20603;-73
2021/03/19 12:58:13;;;;;;;10.30;7.97;;;;;;;;;;4956687;29;20192;-74
2021/03/19 13:01:21;;;;;;;9.50;7.83;;;;;;;;;;4957437;29;20219;-73
2021/03/19 13:04:27;;;;;;;8.53;7.47;;;;;;;;;;4945560;29;20180;-73
2021/03/19 13:07:31;;;;;;;10.97;6.77;;;;;;;;;;4945511;29;20184;-73
2021/03/19 13:10:37;;;;;;;7.97;6.13;;;;;;;;;;4957028;29;20532;-74
2021/03/19 13:13:42;;;;;;;7.80;6.30;;;;;;;;;;4945527;29;20192;-73
2021/03/19 13:16:46;;;;;;;6.30;5.37;;;;;;;;;;4957147;29;20216;-74
2021/03/19 13:19:51;;;;;;;4.93;4.10;;;;;;;;;;4956814;29;20631;-74
2021/03/19 13:22:56;;;;;;;5.87;4.37;;;;;;;;;;4957328;29;20195;-74
2021/03/19 13:26:01;;;;;;;4.70;3.50;;;;;;;;;;4945047;29;20195;-74
2021/03/19 13:29:05;;;;;;;3.60;3.30;;;;;;;;;;4956875;29;20203;-73
2021/03/19 13:32:09;;;;;;;4.90;3.63;;;;;;;;;;4945038;29;20231;-73
2021/03/19 13:35:22;;;;;;;5.23;3.87;;;;;;;;;;4956630;29;20698;-73
2021/03/19 13:38:29;;;;;;;5.57;3.67;;;;;;;;;;4956845;29;20187;-73
2021/03/19 13:41:37;;;;;;;3.47;2.97;;;;;;;;;;4956451;29;20219;-73
2021/03/19 13:44:41;;;;;;;3.90;3.17;;;;;;;;;;4956856;28;20211;-73
2021/03/19 13:47:45;;;;;;;3.33;2.67;;;;;;;;;;4956491;29;20180;-73
2021/03/19 13:50:49;;;;;;;4.43;3.37;;;;;;;;;;4944925;29;20630;-73
2021/03/19 13:53:53;;;;;;;4.73;3.87;;;;;;;;;;4952307;28;21139;-72
2021/03/19 13:57:07;;;;;;;3.67;3.27;;;;;;;;;;4963400;28;20606;-72
2021/03/19 14:00:20;;;;;;;13.97;7.50;;;;;;;;;;4963623;28;20562;-73
2021/03/19 14:03:25;;;;;;;12.33;8.90;;;;;;;;;;4966749;28;20579;-73
2021/03/19 14:06:29;;;;;;;7.17;4.90;;;;;;;;;;4956538;29;20544;-73
2021/03/19 14:09:33;;;;;;;5.40;2.37;;;;;;;;;;4944327;29;20548;-73
2021/03/19 14:12:38;;;;;;;25.70;13.03;;;;;;;;;;4944532;29;20682;-74
2021/03/19 14:15:42;;;;;;;4.13;3.30;;;;;;;;;;4944219;29;20618;-73
2021/03/19 14:18:47;;;;;;;28.33;13.80;;;;;;;;;;4956047;29;20187;-73
2021/03/19 14:21:53;;;;;;;4.20;3.10;;;;;;;;;;4944094;29;20228;-74
2021/03/19 14:24:57;;;;;;;9.23;5.37;;;;;;;;;;4955822;29;20187;-73
2021/03/19 14:28:06;;;;;;;34.77;18.17;;;;;;;;;;4955923;29;20203;-74
2021/03/19 14:31:14;;;;;;;9.83;7.10;;;;;;;;;;4955740;29;20230;-74
2021/03/19 14:34:18;;;;;;;12.67;8.80;;;;;;;;;;4955531;29;20187;-74
2021/03/19 14:37:22;;;;;;;11.40;8.23;;;;;;;;;;4955678;29;20175;-74
2021/03/19 14:40:30;;;;;;;8.67;5.97;;;;;;;;;;4955496;29;20551;-74
2021/03/19 14:43:34;;;;;;;5.57;5.00;;;;;;;;;;4932758;29;20183;-74
2021/03/19 14:46:38;;;;;;;5.23;4.00;;;;;;;;;;4943726;29;20180;-74
2021/03/19 14:49:42;;;;;;;10.07;5.80;;;;;;;;;;4943704;29;20184;-74
2021/03/19 14:52:47;;;;;;;11.50;6.83;;;;;;;;;;4955401;29;20227;-74
2021/03/19 14:55:51;;;;;;;16.43;9.20;;;;;;;;;;4955167;29;20215;-74
2021/03/19 14:58:56;;;;;;;11.27;6.17;;;;;;;;;;4943482;29;20183;-74
2021/03/19 15:02:01;;;;;;;23.13;13.30;;;;;;;;;;4943498;29;20219;-74
2021/03/19 15:05:05;;;;;;;7.33;5.77;;;;;;;;;;4954822;29;20194;-74
2021/03/19 15:08:12;;;;;;;7.43;5.00;;;;;;;;;;4956623;28;20183;-74
2021/03/19 15:11:16;;;;;;;7.33;5.53;;;;;;;;;;4974305;28;20626;-74
2021/03/19 15:14:20;;;;;;;8.90;5.77;;;;;;;;;;4962558;28;20547;-73
2021/03/19 15:17:24;;;;;;;6.00;5.00;;;;;;;;;;4974590;28;21152;-73
2021/03/19 15:20:45;;;;;;;10.00;5.30;;;;;;;;;;4974393;28;20543;-73
2021/03/19 15:23:50;;;;;;;5.83;4.57;;;;;;;;;;4974661;28;21077;-74
2021/03/19 15:26:54;;;;;;;5.47;4.77;;;;;;;;;;4974348;28;20930;-73
2021/03/19 15:29:58;;;;;;;6.90;5.10;;;;;;;;;;4974148;28;21160;-74
2021/03/19 15:33:03;;;;;;;12.17;7.03;;;;;;;;;;4974296;28;20547;-74
2021/03/19 15:36:08;;;;;;;9.60;6.93;;;;;;;;;;4962042;28;20950;-74
2021/03/19 15:39:12;;;;;;;6.70;5.33;;;;;;;;;;4962349;28;20554;-73
2021/03/19 15:42:16;;;;;;;6.27;5.40;;;;;;;;;;4962573;28;20618;-73
2021/03/19 15:45:21;;;;;;;7.30;5.67;;;;;;;;;;4973857;28;20617;-73
2021/03/19 15:48:28;;;;;;;12.33;10.07;;;;;;;;;;4962005;28;20606;-74
2021/03/19 15:51:33;;;;;;;18.20;11.83;;;;;;;;;;4974108;28;20634;-76
2021/03/19 15:54:37;;;;;;;7.00;5.53;;;;;;;;;;4962410;28;20562;-74
2021/03/19 15:57:41;;;;;;;21.87;11.97;;;;;;;;;;4974358;28;20935;-74
2021/03/19 16:00:47;;;;;;;69.73;34.20;;;;;;;;;;4974116;28;20632;-74
2021/03/19 16:03:51;;;;;;;16.63;11.13;;;;;;;;;;4973979;28;20605;-73
2021/03/19 16:06:55;;;;;;;17.47;10.93;;;;;;;;;;4974238;28;20550;-73
2021/03/19 16:10:01;;;;;;;11.23;8.10;;;;;;;;;;4974150;28;20561;-73
2021/03/19 16:13:06;;;;;;;11.70;7.33;;;;;;;;;;4974234;28;20546;-73
2021/03/19 16:16:09;;;;;;;10.63;7.10;;;;;;;;;;4975136;28;21132;-73
2021/03/19 16:19:14;;;;;;;13.30;8.17;;;;;;;;;;4977531;28;21097;-73
2021/03/19 16:22:18;;;;;;;7.17;5.63;;;;;;;;;;4965237;28;20652;-73
2021/03/19 16:25:24;;;;;;;5.73;4.90;;;;;;;;;;4965265;28;20601;-72
2021/03/19 16:28:28;;;;;;;4.87;4.37;;;;;;;;;;4977043;28;20597;-72
2021/03/19 16:31:34;;;;;;;5.97;4.70;;;;;;;;;;4965145;28;20629;-72
2021/03/19 16:34:43;;;;;;;4.63;3.67;;;;;;;;;;4976950;28;20598;-72
2021/03/19 16:37:47;;;;;;;5.10;3.77;;;;;;;;;;4994902;22;20692;-70
2021/03/19 16:40:54;;;;;;;4.03;3.20;;;;;;;;;;4980566;28;20645;-70
2021/03/19 16:43:58;;;;;;;5.17;4.00;;;;;;;;;;4977135;28;20542;-69
2021/03/19 16:47:02;;;;;;;4.30;3.10;;;;;;;;;;4976791;28;20597;-70
2021/03/19 16:50:08;;;;;;;3.93;3.17;;;;;;;;;;4976861;28;20598;-70
2021/03/19 16:53:15;;;;;;;5.47;4.13;;;;;;;;;;4965096;28;20546;-70
2021/03/19 16:56:19;;;;;;;5.77;3.70;;;;;;;;;;4964580;28;20641;-70
2021/03/19 16:59:23;;;;;;;7.27;4.10;;;;;;;;;;4953997;28;20550;-70
2021/03/19 17:02:27;;;;;;;5.13;3.63;;;;;;;;;;4964494;28;20626;-70
2021/03/19 17:05:32;;;;;;;5.10;3.33;;;;;;;;;;4964760;28;20542;-70
2021/03/19 17:08:36;;;;;;;6.77;3.83;;;;;;;;;;4976531;28;20539;-70
2021/03/19 17:11:40;;;;;;;4.30;3.83;;;;;;;;;;4976305;28;20617;-70
2021/03/19 17:14:44;;;;;;;44.03;22.97;;;;;;;;;;4976317;28;20891;-70
2021/03/19 17:17:49;;;;;;;12.67;7.67;;;;;;;;;;4976460;28;20597;-70
2021/03/19 17:20:55;;;;;;;9.63;6.23;;;;;;;;;;4976181;28;20625;-70
2021/03/19 17:23:59;;;;;;;10.57;5.63;;;;;;;;;;4976219;28;20559;-70
2021/03/19 17:27:04;;;;;;;7.27;4.70;;;;;;;;;;4976042;28;20874;-70
2021/03/19 17:30:08;;;;;;;11.53;5.00;;;;;;;;;;4976271;28;20551;-70
2021/03/19 17:33:14;;;;;;;11.43;6.17;;;;;;;;;;4964042;28;20543;-70
2021/03/19 17:36:18;;;;;;;9.33;5.10;;;;;;;;;;4976140;28;20948;-70
2021/03/19 17:39:23;;;;;;;8.77;4.60;;;;;;;;;;4975706;28;20622;-70
2021/03/19 17:42:28;;;;;;;5.50;4.30;;;;;;;;;;4975789;28;21184;-70
2021/03/19 17:45:41;;;;;;;5.87;3.70;;;;;;;;;;4964133;28;20538;-70
2021/03/19 17:48:45;;;;;;;5.47;4.27;;;;;;;;;;4952771;28;20590;-70
2021/03/19 17:51:51;;;;;;;6.90;4.10;;;;;;;;;;4963896;28;20629;-70
2021/03/19 17:54:55;;;;;;;4.53;4.03;;;;;;;;;;4975750;28;20558;-70
2021/03/19 17:58:00;;;;;;;4.90;3.90;;;;;;;;;;4975718;28;20926;-70
2021/03/19 18:01:06;;;;;;;5.07;4.47;;;;;;;;;;4963616;28;21207;-69
2021/03/19 18:04:10;;;;;;;5.07;4.20;;;;;;;;;;4975454;28;20563;-70
2021/03/19 18:07:14;;;;;;;5.80;4.23;;;;;;;;;;4975598;28;20535;-69
2021/03/19 18:10:19;;;;;;;6.80;5.00;;;;;;;;;;4975345;28;20554;-69
2021/03/19 18:13:24;;;;;;;6.20;5.10;;;;;;;;;;4975225;28;20639;-69
2021/03/19 18:16:28;;;;;;;5.57;4.90;;;;;;;;;;4963456;28;21140;-69
2021/03/19 18:19:32;;;;;;;7.03;5.53;;;;;;;;;;4975118;28;20894;-69
2021/03/19 18:22:48;;;;;;;6.10;5.47;;;;;;;;;;4975328;28;20955;-69
2021/03/19 18:25:56;;;;;;;7.40;5.17;;;;;;;;;;4975081;28;20566;-69
2021/03/19 18:29:01;;;;;;;6.20;5.00;;;;;;;;;;4975055;28;20550;-69
2021/03/19 18:32:07;;;;;;;6.63;5.00;;;;;;;;;;4975155;28;20625;-69
2021/03/19 18:35:11;;;;;;;8.03;5.40;;;;;;;;;;4962980;28;20605;-69
2021/03/19 18:38:16;;;;;;;7.53;4.83;;;;;;;;;;4974156;28;20649;-69